sensor_id;sensor_type;location;lat;lon;timestamp;temperature;humidity
2913;DHT22;1466;48.778;9.166;2023-03-24T00:02:16;16.90;91.90
2913;DHT22;1466;48.778;9.166;2023-03-24T00:04:42;16.80;92.10
2913;DHT22;1466;48.778;9.166;2023-03-24T00:07:09;16.80;92.40
2913;DHT22;1466;48.778;9.166;2023-03-24T00:09:40;16.80;92.40
2913;DHT22;1466;48.778;9.166;2023-03-24T00:12:07;16.80;92.60
2913;DHT22;1466;48.778;9.166;2023-03-24T00:14:34;16.80;92.80
2913;DHT22;1466;48.778;9.166;2023-03-24T00:17:00;16.80;92.80
2913;DHT22;1466;48.778;9.166;2023-03-24T00:19:26;16.80;93.00
2913;DHT22;1466;48.778;9.166;2023-03-24T00:21:51;16.80;93.20
2913;DHT22;1466;48.778;9.166;2023-03-24T00:24:20;16.70;93.20
2913;DHT22;1466;48.778;9.166;2023-03-24T00:26:47;16.70;93.20
2913;DHT22;1466;48.778;9.166;2023-03-24T00:29:15;16.70;93.20
2913;DHT22;1466;48.778;9.166;2023-03-24T00:31:40;16.70;93.20
2913;DHT22;1466;48.778;9.166;2023-03-24T00:34:08;16.70;93.20
2913;DHT22;1466;48.778;9.166;2023-03-24T00:36:35;16.70;93.20
2913;DHT22;1466;48.778;9.166;2023-03-24T00:39:02;16.70;93.30
2913;DHT22;1466;48.778;9.166;2023-03-24T00:41:28;16.70;93.30
2913;DHT22;1466;48.778;9.166;2023-03-24T00:43:57;16.70;93.30
2913;DHT22;1466;48.778;9.166;2023-03-24T00:46:23;16.70;93.30
2913;DHT22;1466;48.778;9.166;2023-03-24T00:48:54;16.60;93.30
2913;DHT22;1466;48.778;9.166;2023-03-24T00:51:31;16.70;93.40
2913;DHT22;1466;48.778;9.166;2023-03-24T00:53:57;16.60;93.30
2913;DHT22;1466;48.778;9.166;2023-03-24T00:56:25;16.60;93.20
2913;DHT22;1466;48.778;9.166;2023-03-24T00:58:51;16.50;93.20
2913;DHT22;1466;48.778;9.166;2023-03-24T01:01:19;16.50;93.20
2913;DHT22;1466;48.778;9.166;2023-03-24T01:03:47;16.50;93.10
2913;DHT22;1466;48.778;9.166;2023-03-24T01:06:16;16.50;93.00
2913;DHT22;1466;48.778;9.166;2023-03-24T01:08:43;16.50;93.00
2913;DHT22;1466;48.778;9.166;2023-03-24T01:11:10;16.50;93.00
2913;DHT22;1466;48.778;9.166;2023-03-24T01:13:38;16.50;92.90
2913;DHT22;1466;48.778;9.166;2023-03-24T01:16:04;16.50;92.80
2913;DHT22;1466;48.778;9.166;2023-03-24T01:18:31;16.50;92.80
2913;DHT22;1466;48.778;9.166;2023-03-24T01:20:56;16.50;92.80
2913;DHT22;1466;48.778;9.166;2023-03-24T01:23:24;16.60;92.70
2913;DHT22;1466;48.778;9.166;2023-03-24T01:25:51;16.50;92.70
2913;DHT22;1466;48.778;9.166;2023-03-24T01:28:22;16.60;92.70
2913;DHT22;1466;48.778;9.166;2023-03-24T01:30:50;16.50;92.60
2913;DHT22;1466;48.778;9.166;2023-03-24T01:33:16;16.50;92.60
2913;DHT22;1466;48.778;9.166;2023-03-24T01:35:42;16.50;92.60
2913;DHT22;1466;48.778;9.166;2023-03-24T01:38:10;16.50;92.60
2913;DHT22;1466;48.778;9.166;2023-03-24T01:40:38;16.50;92.60
2913;DHT22;1466;48.778;9.166;2023-03-24T01:43:05;16.50;92.50
2913;DHT22;1466;48.778;9.166;2023-03-24T01:48:05;16.60;92.60
2913;DHT22;1466;48.778;9.166;2023-03-24T01:50:32;16.60;92.50
2913;DHT22;1466;48.778;9.166;2023-03-24T01:52:59;16.60;92.50
2913;DHT22;1466;48.778;9.166;2023-03-24T01:55:27;16.60;92.50
2913;DHT22;1466;48.778;9.166;2023-03-24T01:57:56;16.60;92.50
2913;DHT22;1466;48.778;9.166;2023-03-24T02:00:23;16.60;92.50
2913;DHT22;1466;48.778;9.166;2023-03-24T02:03:02;16.50;92.40
2913;DHT22;1466;48.778;9.166;2023-03-24T02:05:33;16.50;92.40
2913;DHT22;1466;48.778;9.166;2023-03-24T02:10:41;16.50;92.40
2913;DHT22;1466;48.778;9.166;2023-03-24T02:13:08;16.40;92.30
2913;DHT22;1466;48.778;9.166;2023-03-24T02:15:44;16.40;92.30
2913;DHT22;1466;48.778;9.166;2023-03-24T02:18:22;16.40;92.30
2913;DHT22;1466;48.778;9.166;2023-03-24T02:29:02;16.40;92.30
2913;DHT22;1466;48.778;9.166;2023-03-24T02:39:57;16.40;92.10
2913;DHT22;1466;48.778;9.166;2023-03-24T02:50:44;16.40;91.90
2913;DHT22;1466;48.778;9.166;2023-03-24T02:55:49;16.40;91.80
2913;DHT22;1466;48.778;9.166;2023-03-24T02:58:25;16.50;91.90
2913;DHT22;1466;48.778;9.166;2023-03-24T03:00:59;16.50;91.80
2913;DHT22;1466;48.778;9.166;2023-03-24T03:03:35;16.50;91.70
2913;DHT22;1466;48.778;9.166;2023-03-24T03:06:20;16.60;91.70
2913;DHT22;1466;48.778;9.166;2023-03-24T03:08:49;16.60;91.70
2913;DHT22;1466;48.778;9.166;2023-03-24T03:11:16;16.60;91.70
2913;DHT22;1466;48.778;9.166;2023-03-24T03:13:58;16.70;91.70
2913;DHT22;1466;48.778;9.166;2023-03-24T03:19:10;16.70;91.60
2913;DHT22;1466;48.778;9.166;2023-03-24T03:21:40;16.70;91.50
2913;DHT22;1466;48.778;9.166;2023-03-24T03:24:30;16.80;91.60
2913;DHT22;1466;48.778;9.166;2023-03-24T03:27:16;16.70;91.60
2913;DHT22;1466;48.778;9.166;2023-03-24T03:29:47;16.70;91.50
2913;DHT22;1466;48.778;9.166;2023-03-24T03:32:21;16.70;91.50
2913;DHT22;1466;48.778;9.166;2023-03-24T03:35:00;16.70;91.50
2913;DHT22;1466;48.778;9.166;2023-03-24T03:37:48;16.70;91.40
2913;DHT22;1466;48.778;9.166;2023-03-24T03:41:11;16.80;91.50
2913;DHT22;1466;48.778;9.166;2023-03-24T03:43:12;16.80;91.40
2913;DHT22;1466;48.778;9.166;2023-03-24T03:45:37;16.80;91.40
2913;DHT22;1466;48.778;9.166;2023-03-24T03:48:03;16.80;91.30
2913;DHT22;1466;48.778;9.166;2023-03-24T03:50:29;16.80;91.30
2913;DHT22;1466;48.778;9.166;2023-03-24T03:52:55;16.80;91.20
2913;DHT22;1466;48.778;9.166;2023-03-24T03:55:21;16.80;91.20
2913;DHT22;1466;48.778;9.166;2023-03-24T03:57:47;16.80;91.20
2913;DHT22;1466;48.778;9.166;2023-03-24T04:00:16;16.80;91.20
2913;DHT22;1466;48.778;9.166;2023-03-24T04:03:15;16.80;91.10
2913;DHT22;1466;48.778;9.166;2023-03-24T04:08:54;16.80;91.00
2913;DHT22;1466;48.778;9.166;2023-03-24T04:11:45;16.80;91.00
2913;DHT22;1466;48.778;9.166;2023-03-24T04:22:07;16.90;90.90
2913;DHT22;1466;48.778;9.166;2023-03-24T04:25:16;16.90;90.80
2913;DHT22;1466;48.778;9.166;2023-03-24T04:30:25;16.90;90.80
2913;DHT22;1466;48.778;9.166;2023-03-24T04:32:58;16.90;90.80
2913;DHT22;1466;48.778;9.166;2023-03-24T04:35:42;16.80;90.70
2913;DHT22;1466;48.778;9.166;2023-03-24T04:38:13;16.80;90.70
2913;DHT22;1466;48.778;9.166;2023-03-24T04:40:45;16.90;90.70
2913;DHT22;1466;48.778;9.166;2023-03-24T04:43:15;16.90;90.70
2913;DHT22;1466;48.778;9.166;2023-03-24T04:45:43;16.90;90.60
2913;DHT22;1466;48.778;9.166;2023-03-24T04:48:15;16.90;90.60
2913;DHT22;1466;48.778;9.166;2023-03-24T04:50:46;17.00;90.60
2913;DHT22;1466;48.778;9.166;2023-03-24T04:53:13;17.00;90.60
2913;DHT22;1466;48.778;9.166;2023-03-24T04:55:59;17.00;90.60
2913;DHT22;1466;48.778;9.166;2023-03-24T04:58:29;17.00;90.60
2913;DHT22;1466;48.778;9.166;2023-03-24T05:00:54;16.90;90.70
2913;DHT22;1466;48.778;9.166;2023-03-24T05:03:21;16.90;90.70
2913;DHT22;1466;48.778;9.166;2023-03-24T05:05:48;16.90;90.90
2913;DHT22;1466;48.778;9.166;2023-03-24T05:08:15;17.00;91.10
2913;DHT22;1466;48.778;9.166;2023-03-24T05:10:41;16.90;91.10
2913;DHT22;1466;48.778;9.166;2023-03-24T05:13:07;17.00;91.40
2913;DHT22;1466;48.778;9.166;2023-03-24T05:15:33;17.00;91.60
2913;DHT22;1466;48.778;9.166;2023-03-24T05:18:00;17.00;91.70
2913;DHT22;1466;48.778;9.166;2023-03-24T05:20:26;17.00;91.80
2913;DHT22;1466;48.778;9.166;2023-03-24T05:22:52;17.00;92.00
2913;DHT22;1466;48.778;9.166;2023-03-24T05:25:18;17.00;92.20
2913;DHT22;1466;48.778;9.166;2023-03-24T05:27:44;17.00;92.50
2913;DHT22;1466;48.778;9.166;2023-03-24T05:30:11;17.00;92.70
2913;DHT22;1466;48.778;9.166;2023-03-24T05:32:37;16.90;93.30
2913;DHT22;1466;48.778;9.166;2023-03-24T05:35:03;16.80;93.90
2913;DHT22;1466;48.778;9.166;2023-03-24T05:37:29;16.70;94.20
2913;DHT22;1466;48.778;9.166;2023-03-24T05:39:55;16.70;94.70
2913;DHT22;1466;48.778;9.166;2023-03-24T05:42:21;16.70;95.10
2913;DHT22;1466;48.778;9.166;2023-03-24T05:44:47;16.60;95.40
2913;DHT22;1466;48.778;9.166;2023-03-24T05:47:13;16.50;95.80
2913;DHT22;1466;48.778;9.166;2023-03-24T05:49:43;16.50;96.20
2913;DHT22;1466;48.778;9.166;2023-03-24T05:52:10;16.40;96.30
2913;DHT22;1466;48.778;9.166;2023-03-24T05:54:36;16.40;96.40
2913;DHT22;1466;48.778;9.166;2023-03-24T05:57:06;16.50;96.60
2913;DHT22;1466;48.778;9.166;2023-03-24T05:59:33;16.50;96.70
2913;DHT22;1466;48.778;9.166;2023-03-24T06:01:59;16.50;96.90
2913;DHT22;1466;48.778;9.166;2023-03-24T06:04:25;16.50;96.90
2913;DHT22;1466;48.778;9.166;2023-03-24T06:06:55;16.50;97.10
2913;DHT22;1466;48.778;9.166;2023-03-24T06:09:24;16.50;97.40
2913;DHT22;1466;48.778;9.166;2023-03-24T06:11:50;16.40;97.50
2913;DHT22;1466;48.778;9.166;2023-03-24T06:14:15;16.40;97.70
2913;DHT22;1466;48.778;9.166;2023-03-24T06:16:41;16.30;97.80
2913;DHT22;1466;48.778;9.166;2023-03-24T06:19:07;16.30;98.00
2913;DHT22;1466;48.778;9.166;2023-03-24T06:21:33;16.30;98.30
2913;DHT22;1466;48.778;9.166;2023-03-24T06:23:59;16.30;98.50
2913;DHT22;1466;48.778;9.166;2023-03-24T06:26:25;16.40;98.40
2913;DHT22;1466;48.778;9.166;2023-03-24T06:28:51;16.50;98.40
2913;DHT22;1466;48.778;9.166;2023-03-24T06:31:18;16.50;98.50
2913;DHT22;1466;48.778;9.166;2023-03-24T06:33:46;16.50;98.60
2913;DHT22;1466;48.778;9.166;2023-03-24T06:36:11;16.50;98.70
2913;DHT22;1466;48.778;9.166;2023-03-24T06:38:37;16.50;98.90
2913;DHT22;1466;48.778;9.166;2023-03-24T06:41:04;16.60;98.80
2913;DHT22;1466;48.778;9.166;2023-03-24T06:43:30;16.50;98.80
2913;DHT22;1466;48.778;9.166;2023-03-24T06:45:56;16.50;98.80
2913;DHT22;1466;48.778;9.166;2023-03-24T06:48:23;16.50;99.00
2913;DHT22;1466;48.778;9.166;2023-03-24T06:50:51;16.40;99.10
2913;DHT22;1466;48.778;9.166;2023-03-24T06:53:17;16.40;99.20
2913;DHT22;1466;48.778;9.166;2023-03-24T06:55:42;16.40;99.40
2913;DHT22;1466;48.778;9.166;2023-03-24T06:58:08;16.40;99.50
2913;DHT22;1466;48.778;9.166;2023-03-24T07:00:34;16.50;99.70
2913;DHT22;1466;48.778;9.166;2023-03-24T07:03:01;16.40;99.70
2913;DHT22;1466;48.778;9.166;2023-03-24T07:05:27;16.50;99.70
2913;DHT22;1466;48.778;9.166;2023-03-24T07:07:52;16.50;99.80
2913;DHT22;1466;48.778;9.166;2023-03-24T07:10:18;16.50;99.90
2913;DHT22;1466;48.778;9.166;2023-03-24T07:12:46;16.60;99.90
2913;DHT22;1466;48.778;9.166;2023-03-24T07:15:12;16.60;99.90
2913;DHT22;1466;48.778;9.166;2023-03-24T07:17:40;16.50;99.90
2913;DHT22;1466;48.778;9.166;2023-03-24T07:20:06;16.50;99.90
2913;DHT22;1466;48.778;9.166;2023-03-24T07:22:33;16.40;99.90
2913;DHT22;1466;48.778;9.166;2023-03-24T07:25:01;16.30;99.90
2913;DHT22;1466;48.778;9.166;2023-03-24T07:27:30;16.20;99.90
2913;DHT22;1466;48.778;9.166;2023-03-24T07:29:57;16.00;99.90
2913;DHT22;1466;48.778;9.166;2023-03-24T07:32:23;16.00;99.90
2913;DHT22;1466;48.778;9.166;2023-03-24T07:34:49;15.90;99.90
2913;DHT22;1466;48.778;9.166;2023-03-24T07:37:15;15.90;99.90
2913;DHT22;1466;48.778;9.166;2023-03-24T07:39:40;15.80;99.90
2913;DHT22;1466;48.778;9.166;2023-03-24T07:42:06;15.70;99.90
2913;DHT22;1466;48.778;9.166;2023-03-24T07:44:32;15.70;99.90
2913;DHT22;1466;48.778;9.166;2023-03-24T07:46:57;15.60;99.90
2913;DHT22;1466;48.778;9.166;2023-03-24T07:49:23;15.60;99.90
2913;DHT22;1466;48.778;9.166;2023-03-24T07:51:49;15.60;99.90
2913;DHT22;1466;48.778;9.166;2023-03-24T07:54:14;15.60;99.90
2913;DHT22;1466;48.778;9.166;2023-03-24T07:56:40;15.60;99.90
2913;DHT22;1466;48.778;9.166;2023-03-24T07:59:06;15.50;99.90
2913;DHT22;1466;48.778;9.166;2023-03-24T08:01:34;15.40;99.90
2913;DHT22;1466;48.778;9.166;2023-03-24T08:04:01;15.40;99.90
2913;DHT22;1466;48.778;9.166;2023-03-24T08:06:27;15.50;99.90
2913;DHT22;1466;48.778;9.166;2023-03-24T08:08:53;15.50;99.90
2913;DHT22;1466;48.778;9.166;2023-03-24T08:11:19;15.60;99.90
2913;DHT22;1466;48.778;9.166;2023-03-24T08:13:45;15.60;99.90
2913;DHT22;1466;48.778;9.166;2023-03-24T08:16:10;15.60;99.90
2913;DHT22;1466;48.778;9.166;2023-03-24T08:18:36;15.60;99.90
2913;DHT22;1466;48.778;9.166;2023-03-24T08:21:02;15.60;99.90
2913;DHT22;1466;48.778;9.166;2023-03-24T08:23:27;15.70;99.90
2913;DHT22;1466;48.778;9.166;2023-03-24T08:25:53;15.70;99.90
2913;DHT22;1466;48.778;9.166;2023-03-24T08:28:19;15.70;99.90
2913;DHT22;1466;48.778;9.166;2023-03-24T08:30:44;15.70;99.90
2913;DHT22;1466;48.778;9.166;2023-03-24T08:33:12;15.70;99.90
2913;DHT22;1466;48.778;9.166;2023-03-24T08:35:38;15.60;99.90
2913;DHT22;1466;48.778;9.166;2023-03-24T08:38:05;15.60;99.90
2913;DHT22;1466;48.778;9.166;2023-03-24T08:40:31;15.60;99.90
2913;DHT22;1466;48.778;9.166;2023-03-24T08:43:00;15.70;99.90
2913;DHT22;1466;48.778;9.166;2023-03-24T08:45:29;15.80;99.90
2913;DHT22;1466;48.778;9.166;2023-03-24T08:47:56;15.80;99.90
2913;DHT22;1466;48.778;9.166;2023-03-24T08:50:25;15.90;99.90
2913;DHT22;1466;48.778;9.166;2023-03-24T08:52:53;15.80;99.90
2913;DHT22;1466;48.778;9.166;2023-03-24T08:55:20;15.90;99.90
2913;DHT22;1466;48.778;9.166;2023-03-24T08:57:46;15.90;99.90
2913;DHT22;1466;48.778;9.166;2023-03-24T09:00:14;15.90;99.90
2913;DHT22;1466;48.778;9.166;2023-03-24T09:02:41;16.00;99.90
2913;DHT22;1466;48.778;9.166;2023-03-24T09:05:07;16.10;99.90
2913;DHT22;1466;48.778;9.166;2023-03-24T09:07:33;16.20;99.90
2913;DHT22;1466;48.778;9.166;2023-03-24T09:09:58;16.20;99.90
2913;DHT22;1466;48.778;9.166;2023-03-24T09:12:24;16.20;99.90
2913;DHT22;1466;48.778;9.166;2023-03-24T09:14:50;16.20;99.90
2913;DHT22;1466;48.778;9.166;2023-03-24T09:17:16;16.20;99.90
2913;DHT22;1466;48.778;9.166;2023-03-24T09:19:43;16.30;99.90
2913;DHT22;1466;48.778;9.166;2023-03-24T09:22:09;16.30;99.90
2913;DHT22;1466;48.778;9.166;2023-03-24T09:24:35;16.30;99.90
2913;DHT22;1466;48.778;9.166;2023-03-24T09:27:01;16.40;99.90
2913;DHT22;1466;48.778;9.166;2023-03-24T09:29:26;16.50;99.90
2913;DHT22;1466;48.778;9.166;2023-03-24T09:31:52;16.60;99.90
2913;DHT22;1466;48.778;9.166;2023-03-24T09:34:18;16.70;99.90
2913;DHT22;1466;48.778;9.166;2023-03-24T09:36:45;16.60;99.90
2913;DHT22;1466;48.778;9.166;2023-03-24T09:39:11;16.70;99.90
2913;DHT22;1466;48.778;9.166;2023-03-24T09:41:36;16.70;99.90
2913;DHT22;1466;48.778;9.166;2023-03-24T09:44:03;16.80;99.90
2913;DHT22;1466;48.778;9.166;2023-03-24T09:46:35;16.90;99.90
2913;DHT22;1466;48.778;9.166;2023-03-24T09:49:02;17.10;99.90
2913;DHT22;1466;48.778;9.166;2023-03-24T09:51:34;17.30;99.90
2913;DHT22;1466;48.778;9.166;2023-03-24T09:56:35;17.40;99.90
2913;DHT22;1466;48.778;9.166;2023-03-24T09:59:05;17.40;99.90
2913;DHT22;1466;48.778;9.166;2023-03-24T10:01:33;17.40;99.90
2913;DHT22;1466;48.778;9.166;2023-03-24T10:03:59;17.50;99.90
2913;DHT22;1466;48.778;9.166;2023-03-24T10:11:37;17.90;99.90
2913;DHT22;1466;48.778;9.166;2023-03-24T10:14:16;18.10;99.90
2913;DHT22;1466;48.778;9.166;2023-03-24T10:19:46;18.40;99.90
2913;DHT22;1466;48.778;9.166;2023-03-24T10:22:21;18.40;99.90
2913;DHT22;1466;48.778;9.166;2023-03-24T10:30:27;18.30;99.90
2913;DHT22;1466;48.778;9.166;2023-03-24T10:32:53;18.20;99.90
2913;DHT22;1466;48.778;9.166;2023-03-24T10:35:29;18.30;99.90
2913;DHT22;1466;48.778;9.166;2023-03-24T10:37:59;18.40;99.90
2913;DHT22;1466;48.778;9.166;2023-03-24T10:40:28;18.40;99.90
2913;DHT22;1466;48.778;9.166;2023-03-24T10:42:55;18.50;99.90
2913;DHT22;1466;48.778;9.166;2023-03-24T10:45:32;18.40;99.90
2913;DHT22;1466;48.778;9.166;2023-03-24T10:48:01;18.50;99.50
2913;DHT22;1466;48.778;9.166;2023-03-24T10:50:30;18.50;99.10
2913;DHT22;1466;48.778;9.166;2023-03-24T10:52:56;18.50;98.80
2913;DHT22;1466;48.778;9.166;2023-03-24T10:55:36;18.50;98.60
2913;DHT22;1466;48.778;9.166;2023-03-24T10:58:19;18.50;98.60
2913;DHT22;1466;48.778;9.166;2023-03-24T11:00:46;18.50;98.20
2913;DHT22;1466;48.778;9.166;2023-03-24T11:03:15;18.50;98.30
2913;DHT22;1466;48.778;9.166;2023-03-24T11:05:43;18.50;98.30
2913;DHT22;1466;48.778;9.166;2023-03-24T11:08:26;18.60;98.50
2913;DHT22;1466;48.778;9.166;2023-03-24T11:10:53;18.50;98.00
2913;DHT22;1466;48.778;9.166;2023-03-24T11:13:33;18.50;97.90
2913;DHT22;1466;48.778;9.166;2023-03-24T11:16:14;18.50;98.00
2913;DHT22;1466;48.778;9.166;2023-03-24T11:19:04;18.70;98.00
2913;DHT22;1466;48.778;9.166;2023-03-24T11:21:34;18.80;97.80
2913;DHT22;1466;48.778;9.166;2023-03-24T11:24:02;18.80;97.50
2913;DHT22;1466;48.778;9.166;2023-03-24T11:26:34;18.80;97.30
2913;DHT22;1466;48.778;9.166;2023-03-24T11:29:17;18.90;97.10
2913;DHT22;1466;48.778;9.166;2023-03-24T11:32:12;19.00;97.00
2913;DHT22;1466;48.778;9.166;2023-03-24T11:34:38;19.00;96.80
2913;DHT22;1466;48.778;9.166;2023-03-24T11:37:20;19.00;96.40
2913;DHT22;1466;48.778;9.166;2023-03-24T11:42:49;19.20;96.30
2913;DHT22;1466;48.778;9.166;2023-03-24T11:48:01;19.10;95.60
2913;DHT22;1466;48.778;9.166;2023-03-24T11:50:33;18.90;95.50
2913;DHT22;1466;48.778;9.166;2023-03-24T11:55:52;18.70;96.00
2913;DHT22;1466;48.778;9.166;2023-03-24T11:58:39;18.70;95.80
2913;DHT22;1466;48.778;9.166;2023-03-24T12:01:09;18.60;95.50
2913;DHT22;1466;48.778;9.166;2023-03-24T12:14:08;18.40;94.90
2913;DHT22;1466;48.778;9.166;2023-03-24T12:16:50;18.40;94.80
2913;DHT22;1466;48.778;9.166;2023-03-24T12:39:09;18.40;93.70
2913;DHT22;1466;48.778;9.166;2023-03-24T12:50:10;18.30;93.90
2913;DHT22;1466;48.778;9.166;2023-03-24T12:56:17;18.20;94.10
2913;DHT22;1466;48.778;9.166;2023-03-24T12:58:48;18.20;94.30
2913;DHT22;1466;48.778;9.166;2023-03-24T13:01:34;18.30;94.30
2913;DHT22;1466;48.778;9.166;2023-03-24T13:04:07;18.30;94.40
2913;DHT22;1466;48.778;9.166;2023-03-24T13:12:09;18.40;94.40
2913;DHT22;1466;48.778;9.166;2023-03-24T13:17:25;18.40;94.40
2913;DHT22;1466;48.778;9.166;2023-03-24T13:19:53;18.40;94.60
2913;DHT22;1466;48.778;9.166;2023-03-24T13:22:22;18.30;94.50
2913;DHT22;1466;48.778;9.166;2023-03-24T13:24:49;18.20;94.40
2913;DHT22;1466;48.778;9.166;2023-03-24T13:27:46;18.00;94.40
2913;DHT22;1466;48.778;9.166;2023-03-24T13:30:29;17.80;94.70
2913;DHT22;1466;48.778;9.166;2023-03-24T13:33:21;17.70;94.90
2913;DHT22;1466;48.778;9.166;2023-03-24T13:41:05;17.50;95.50
2913;DHT22;1466;48.778;9.166;2023-03-24T13:43:32;17.50;95.60
2913;DHT22;1466;48.778;9.166;2023-03-24T13:46:03;17.60;95.60
2913;DHT22;1466;48.778;9.166;2023-03-24T13:48:39;17.60;95.60
2913;DHT22;1466;48.778;9.166;2023-03-24T14:15:37;17.60;95.30
2913;DHT22;1466;48.778;9.166;2023-03-24T14:21:06;17.70;95.30
2913;DHT22;1466;48.778;9.166;2023-03-24T14:26:05;17.00;97.60
2913;DHT22;1466;48.778;9.166;2023-03-24T14:36:37;15.90;99.90
2913;DHT22;1466;48.778;9.166;2023-03-24T14:41:51;15.60;99.90
2913;DHT22;1466;48.778;9.166;2023-03-24T14:47:19;15.10;99.90
2913;DHT22;1466;48.778;9.166;2023-03-24T14:49:47;14.70;99.90
2913;DHT22;1466;48.778;9.166;2023-03-24T14:52:34;14.50;99.90
2913;DHT22;1466;48.778;9.166;2023-03-24T14:57:34;14.10;99.90
2913;DHT22;1466;48.778;9.166;2023-03-24T15:00:08;13.90;99.90
2913;DHT22;1466;48.778;9.166;2023-03-24T15:02:45;13.70;99.90
2913;DHT22;1466;48.778;9.166;2023-03-24T15:10:34;13.60;99.90
2913;DHT22;1466;48.778;9.166;2023-03-24T15:13:02;13.70;99.90
2913;DHT22;1466;48.778;9.166;2023-03-24T15:15:27;13.60;99.90
2913;DHT22;1466;48.778;9.166;2023-03-24T15:17:53;13.80;99.90
2913;DHT22;1466;48.778;9.166;2023-03-24T15:20:31;13.80;99.90
2913;DHT22;1466;48.778;9.166;2023-03-24T15:23:07;13.90;99.90
2913;DHT22;1466;48.778;9.166;2023-03-24T15:25:33;13.90;99.90
2913;DHT22;1466;48.778;9.166;2023-03-24T15:27:58;13.80;99.90
2913;DHT22;1466;48.778;9.166;2023-03-24T15:30:25;13.70;99.90
2913;DHT22;1466;48.778;9.166;2023-03-24T15:32:52;13.60;99.90
2913;DHT22;1466;48.778;9.166;2023-03-24T15:35:21;13.50;99.90
2913;DHT22;1466;48.778;9.166;2023-03-24T15:37:54;13.60;99.90
2913;DHT22;1466;48.778;9.166;2023-03-24T15:42:56;13.80;99.90
2913;DHT22;1466;48.778;9.166;2023-03-24T15:45:26;14.00;99.90
2913;DHT22;1466;48.778;9.166;2023-03-24T15:47:53;14.10;99.90
2913;DHT22;1466;48.778;9.166;2023-03-24T15:50:36;14.20;99.90
2913;DHT22;1466;48.778;9.166;2023-03-24T15:55:31;14.40;99.90
2913;DHT22;1466;48.778;9.166;2023-03-24T15:58:00;14.50;99.90
2913;DHT22;1466;48.778;9.166;2023-03-24T16:00:28;14.50;99.90
2913;DHT22;1466;48.778;9.166;2023-03-24T16:02:58;14.60;99.90
2913;DHT22;1466;48.778;9.166;2023-03-24T16:05:29;14.70;99.90
2913;DHT22;1466;48.778;9.166;2023-03-24T16:08:07;14.70;99.90
2913;DHT22;1466;48.778;9.166;2023-03-24T16:11:01;14.80;99.90
2913;DHT22;1466;48.778;9.166;2023-03-24T16:13:29;14.80;99.90
2913;DHT22;1466;48.778;9.166;2023-03-24T16:16:00;14.80;99.90
2913;DHT22;1466;48.778;9.166;2023-03-24T16:18:36;14.80;99.90
2913;DHT22;1466;48.778;9.166;2023-03-24T16:21:12;14.70;99.90
2913;DHT22;1466;48.778;9.166;2023-03-24T16:23:38;14.70;99.90
2913;DHT22;1466;48.778;9.166;2023-03-24T16:26:04;14.70;99.90
2913;DHT22;1466;48.778;9.166;2023-03-24T16:28:30;14.80;99.90
2913;DHT22;1466;48.778;9.166;2023-03-24T16:31:00;14.80;99.90
2913;DHT22;1466;48.778;9.166;2023-03-24T16:33:26;14.80;99.90
2913;DHT22;1466;48.778;9.166;2023-03-24T16:35:51;14.80;99.90
2913;DHT22;1466;48.778;9.166;2023-03-24T16:38:17;14.90;99.90
2913;DHT22;1466;48.778;9.166;2023-03-24T16:40:51;14.90;99.90
2913;DHT22;1466;48.778;9.166;2023-03-24T16:43:18;15.00;99.90
2913;DHT22;1466;48.778;9.166;2023-03-24T16:45:48;15.00;99.90
2913;DHT22;1466;48.778;9.166;2023-03-24T16:48:16;15.00;99.90
2913;DHT22;1466;48.778;9.166;2023-03-24T16:50:47;15.10;99.90
2913;DHT22;1466;48.778;9.166;2023-03-24T16:53:14;15.10;99.90
2913;DHT22;1466;48.778;9.166;2023-03-24T16:55:41;15.10;99.90
2913;DHT22;1466;48.778;9.166;2023-03-24T16:58:11;15.10;99.90
2913;DHT22;1466;48.778;9.166;2023-03-24T17:00:36;15.10;99.90
2913;DHT22;1466;48.778;9.166;2023-03-24T17:03:04;15.00;99.90
2913;DHT22;1466;48.778;9.166;2023-03-24T17:05:39;15.00;99.90
2913;DHT22;1466;48.778;9.166;2023-03-24T17:08:04;14.90;99.90
2913;DHT22;1466;48.778;9.166;2023-03-24T17:10:30;14.90;99.90
2913;DHT22;1466;48.778;9.166;2023-03-24T17:12:56;15.00;99.90
2913;DHT22;1466;48.778;9.166;2023-03-24T17:15:27;14.90;99.90
2913;DHT22;1466;48.778;9.166;2023-03-24T17:17:54;14.90;99.90
2913;DHT22;1466;48.778;9.166;2023-03-24T17:20:21;14.80;99.90
2913;DHT22;1466;48.778;9.166;2023-03-24T17:22:50;14.80;99.90
2913;DHT22;1466;48.778;9.166;2023-03-24T17:25:18;14.80;99.90
2913;DHT22;1466;48.778;9.166;2023-03-24T17:27:45;14.80;99.90
2913;DHT22;1466;48.778;9.166;2023-03-24T17:30:19;14.80;99.90
2913;DHT22;1466;48.778;9.166;2023-03-24T17:32:45;14.80;99.90
2913;DHT22;1466;48.778;9.166;2023-03-24T17:35:15;14.70;99.90
2913;DHT22;1466;48.778;9.166;2023-03-24T17:37:41;14.70;99.90
2913;DHT22;1466;48.778;9.166;2023-03-24T17:40:09;14.70;99.90
2913;DHT22;1466;48.778;9.166;2023-03-24T17:42:36;14.60;99.90
2913;DHT22;1466;48.778;9.166;2023-03-24T17:45:03;14.60;99.90
2913;DHT22;1466;48.778;9.166;2023-03-24T17:47:29;14.60;99.90
2913;DHT22;1466;48.778;9.166;2023-03-24T17:49:55;14.50;99.90
2913;DHT22;1466;48.778;9.166;2023-03-24T17:52:21;14.50;99.90
2913;DHT22;1466;48.778;9.166;2023-03-24T17:54:47;14.50;99.90
2913;DHT22;1466;48.778;9.166;2023-03-24T17:57:13;14.60;99.90
2913;DHT22;1466;48.778;9.166;2023-03-24T17:59:38;14.50;99.90
2913;DHT22;1466;48.778;9.166;2023-03-24T18:02:05;14.50;99.90
2913;DHT22;1466;48.778;9.166;2023-03-24T18:04:32;14.60;99.90
2913;DHT22;1466;48.778;9.166;2023-03-24T18:06:58;14.60;99.90
2913;DHT22;1466;48.778;9.166;2023-03-24T18:09:25;14.50;99.90
2913;DHT22;1466;48.778;9.166;2023-03-24T18:11:51;14.50;99.90
2913;DHT22;1466;48.778;9.166;2023-03-24T18:14:17;14.40;99.90
2913;DHT22;1466;48.778;9.166;2023-03-24T18:16:43;14.40;99.90
2913;DHT22;1466;48.778;9.166;2023-03-24T18:19:08;14.40;99.90
2913;DHT22;1466;48.778;9.166;2023-03-24T18:21:35;14.30;99.90
2913;DHT22;1466;48.778;9.166;2023-03-24T18:24:00;14.30;99.90
2913;DHT22;1466;48.778;9.166;2023-03-24T18:26:26;14.20;99.90
2913;DHT22;1466;48.778;9.166;2023-03-24T18:28:52;14.20;99.90
2913;DHT22;1466;48.778;9.166;2023-03-24T18:31:19;14.20;99.90
2913;DHT22;1466;48.778;9.166;2023-03-24T18:33:46;14.20;99.90
2913;DHT22;1466;48.778;9.166;2023-03-24T18:36:13;14.20;99.90
2913;DHT22;1466;48.778;9.166;2023-03-24T18:38:46;14.10;99.90
2913;DHT22;1466;48.778;9.166;2023-03-24T18:41:11;14.10;99.90
2913;DHT22;1466;48.778;9.166;2023-03-24T18:43:39;14.20;99.90
2913;DHT22;1466;48.778;9.166;2023-03-24T18:46:11;14.10;99.90
2913;DHT22;1466;48.778;9.166;2023-03-24T18:48:39;14.00;99.90
2913;DHT22;1466;48.778;9.166;2023-03-24T18:51:06;14.00;99.90
2913;DHT22;1466;48.778;9.166;2023-03-24T18:53:32;14.00;99.90
2913;DHT22;1466;48.778;9.166;2023-03-24T18:56:01;13.90;99.90
2913;DHT22;1466;48.778;9.166;2023-03-24T18:58:28;13.90;99.90
2913;DHT22;1466;48.778;9.166;2023-03-24T19:00:55;13.90;99.90
2913;DHT22;1466;48.778;9.166;2023-03-24T19:03:22;13.90;99.90
2913;DHT22;1466;48.778;9.166;2023-03-24T19:05:48;13.90;99.90
2913;DHT22;1466;48.778;9.166;2023-03-24T19:08:17;13.90;99.90
2913;DHT22;1466;48.778;9.166;2023-03-24T19:10:43;13.90;99.90
2913;DHT22;1466;48.778;9.166;2023-03-24T19:13:13;13.90;99.90
2913;DHT22;1466;48.778;9.166;2023-03-24T19:15:39;13.90;99.90
2913;DHT22;1466;48.778;9.166;2023-03-24T19:18:06;13.90;99.90
2913;DHT22;1466;48.778;9.166;2023-03-24T19:20:31;13.90;99.90
2913;DHT22;1466;48.778;9.166;2023-03-24T19:22:59;13.80;99.90